sensor_id;sensor_type;location;lat;lon;timestamp;P1;durP1;ratioP1;P2;durP2;ratioP2
11747;SDS011;5931;48.832;9.072;2023-05-07T00:01:26;5.70;;;3.60;;
11747;SDS011;5931;48.832;9.072;2023-05-07T00:03:52;6.00;;;3.60;;
11747;SDS011;5931;48.832;9.072;2023-05-07T00:06:18;5.10;;;3.83;;
11747;SDS011;5931;48.832;9.072;2023-05-07T00:08:44;7.10;;;4.30;;
11747;SDS011;5931;48.832;9.072;2023-05-07T00:11:10;3.87;;;3.50;;
11747;SDS011;5931;48.832;9.072;2023-05-07T00:13:36;4.50;;;4.10;;
11747;SDS011;5931;48.832;9.072;2023-05-07T00:16:02;4.97;;;3.77;;
11747;SDS011;5931;48.832;9.072;2023-05-07T00:18:28;7.03;;;4.23;;
11747;SDS011;5931;48.832;9.072;2023-05-07T00:20:53;4.57;;;3.50;;
11747;SDS011;5931;48.832;9.072;2023-05-07T00:23:19;6.10;;;3.70;;
11747;SDS011;5931;48.832;9.072;2023-05-07T00:25:44;5.70;;;4.60;;
11747;SDS011;5931;48.832;9.072;2023-05-07T00:28:10;4.17;;;3.27;;
11747;SDS011;5931;48.832;9.072;2023-05-07T00:30:36;6.53;;;3.13;;
11747;SDS011;5931;48.832;9.072;2023-05-07T00:33:01;5.50;;;3.87;;
11747;SDS011;5931;48.832;9.072;2023-05-07T00:35:28;6.10;;;3.90;;
11747;SDS011;5931;48.832;9.072;2023-05-07T00:37:54;4.47;;;3.93;;
11747;SDS011;5931;48.832;9.072;2023-05-07T00:40:20;4.33;;;3.70;;
11747;SDS011;5931;48.832;9.072;2023-05-07T00:42:46;6.13;;;4.00;;
11747;SDS011;5931;48.832;9.072;2023-05-07T00:45:15;5.50;;;3.27;;
11747;SDS011;5931;48.832;9.072;2023-05-07T00:47:41;7.00;;;4.40;;
11747;SDS011;5931;48.832;9.072;2023-05-07T00:50:08;11.00;;;4.30;;
11747;SDS011;5931;48.832;9.072;2023-05-07T00:52:37;5.17;;;3.60;;
11747;SDS011;5931;48.832;9.072;2023-05-07T00:55:04;5.10;;;3.50;;
11747;SDS011;5931;48.832;9.072;2023-05-07T00:57:37;3.70;;;3.30;;
11747;SDS011;5931;48.832;9.072;2023-05-07T01:00:06;4.83;;;3.80;;
11747;SDS011;5931;48.832;9.072;2023-05-07T01:02:34;6.63;;;3.77;;
11747;SDS011;5931;48.832;9.072;2023-05-07T01:05:07;6.53;;;4.00;;
11747;SDS011;5931;48.832;9.072;2023-05-07T01:07:36;4.50;;;3.60;;
11747;SDS011;5931;48.832;9.072;2023-05-07T01:10:05;5.17;;;3.97;;
11747;SDS011;5931;48.832;9.072;2023-05-07T01:12:32;3.70;;;3.40;;
11747;SDS011;5931;48.832;9.072;2023-05-07T01:14:59;4.40;;;3.73;;
11747;SDS011;5931;48.832;9.072;2023-05-07T01:17:25;5.47;;;3.80;;
11747;SDS011;5931;48.832;9.072;2023-05-07T01:19:51;4.97;;;3.60;;
11747;SDS011;5931;48.832;9.072;2023-05-07T01:22:51;4.50;;;3.43;;
11747;SDS011;5931;48.832;9.072;2023-05-07T01:25:11;5.83;;;3.80;;
11747;SDS011;5931;48.832;9.072;2023-05-07T01:27:41;5.40;;;3.90;;
11747;SDS011;5931;48.832;9.072;2023-05-07T01:30:07;5.20;;;3.87;;
11747;SDS011;5931;48.832;9.072;2023-05-07T01:32:35;5.67;;;3.53;;
11747;SDS011;5931;48.832;9.072;2023-05-07T01:35:25;7.03;;;4.93;;
11747;SDS011;5931;48.832;9.072;2023-05-07T01:37:54;6.60;;;4.40;;
11747;SDS011;5931;48.832;9.072;2023-05-07T01:40:20;4.40;;;4.00;;
11747;SDS011;5931;48.832;9.072;2023-05-07T01:42:46;7.13;;;4.77;;
11747;SDS011;5931;48.832;9.072;2023-05-07T01:45:13;7.23;;;4.80;;
11747;SDS011;5931;48.832;9.072;2023-05-07T01:47:39;4.13;;;3.37;;
11747;SDS011;5931;48.832;9.072;2023-05-07T01:50:05;8.33;;;4.17;;
11747;SDS011;5931;48.832;9.072;2023-05-07T01:52:33;7.37;;;4.03;;
11747;SDS011;5931;48.832;9.072;2023-05-07T01:54:59;4.20;;;3.43;;
11747;SDS011;5931;48.832;9.072;2023-05-07T01:57:24;6.13;;;4.23;;
11747;SDS011;5931;48.832;9.072;2023-05-07T01:59:50;6.70;;;4.17;;
11747;SDS011;5931;48.832;9.072;2023-05-07T02:02:17;5.90;;;3.63;;
11747;SDS011;5931;48.832;9.072;2023-05-07T02:04:43;5.97;;;3.60;;
11747;SDS011;5931;48.832;9.072;2023-05-07T02:07:10;17.97;;;4.10;;
11747;SDS011;5931;48.832;9.072;2023-05-07T02:09:36;5.57;;;4.00;;
11747;SDS011;5931;48.832;9.072;2023-05-07T02:12:02;4.73;;;3.90;;
11747;SDS011;5931;48.832;9.072;2023-05-07T02:14:28;3.80;;;3.00;;
11747;SDS011;5931;48.832;9.072;2023-05-07T02:16:54;7.90;;;3.63;;
11747;SDS011;5931;48.832;9.072;2023-05-07T02:19:19;4.43;;;3.40;;
11747;SDS011;5931;48.832;9.072;2023-05-07T02:21:46;5.40;;;3.87;;
11747;SDS011;5931;48.832;9.072;2023-05-07T02:24:12;4.50;;;3.20;;
11747;SDS011;5931;48.832;9.072;2023-05-07T02:26:39;5.60;;;3.57;;
11747;SDS011;5931;48.832;9.072;2023-05-07T02:29:06;8.80;;;3.90;;
11747;SDS011;5931;48.832;9.072;2023-05-07T02:31:32;3.37;;;3.07;;
11747;SDS011;5931;48.832;9.072;2023-05-07T02:33:59;4.47;;;3.90;;
11747;SDS011;5931;48.832;9.072;2023-05-07T02:36:26;5.13;;;3.60;;
11747;SDS011;5931;48.832;9.072;2023-05-07T02:39:17;5.13;;;3.67;;
11747;SDS011;5931;48.832;9.072;2023-05-07T02:41:43;3.90;;;3.20;;
11747;SDS011;5931;48.832;9.072;2023-05-07T02:44:09;3.73;;;3.30;;
11747;SDS011;5931;48.832;9.072;2023-05-07T02:46:34;7.10;;;3.50;;
11747;SDS011;5931;48.832;9.072;2023-05-07T02:49:05;4.73;;;3.43;;
11747;SDS011;5931;48.832;9.072;2023-05-07T02:51:32;4.80;;;3.50;;
11747;SDS011;5931;48.832;9.072;2023-05-07T02:54:01;5.43;;;3.20;;
11747;SDS011;5931;48.832;9.072;2023-05-07T02:56:27;7.77;;;4.23;;
11747;SDS011;5931;48.832;9.072;2023-05-07T02:58:53;4.10;;;3.30;;
11747;SDS011;5931;48.832;9.072;2023-05-07T03:01:21;6.20;;;3.80;;
11747;SDS011;5931;48.832;9.072;2023-05-07T03:03:53;5.47;;;4.13;;
11747;SDS011;5931;48.832;9.072;2023-05-07T03:06:20;8.03;;;3.53;;
11747;SDS011;5931;48.832;9.072;2023-05-07T03:08:45;5.57;;;3.70;;
11747;SDS011;5931;48.832;9.072;2023-05-07T03:11:11;5.60;;;3.83;;
11747;SDS011;5931;48.832;9.072;2023-05-07T03:13:37;4.30;;;3.90;;
11747;SDS011;5931;48.832;9.072;2023-05-07T03:16:02;5.83;;;3.23;;
11747;SDS011;5931;48.832;9.072;2023-05-07T03:18:28;4.27;;;3.90;;
11747;SDS011;5931;48.832;9.072;2023-05-07T03:20:54;6.93;;;3.90;;
11747;SDS011;5931;48.832;9.072;2023-05-07T03:23:19;5.97;;;3.57;;
11747;SDS011;5931;48.832;9.072;2023-05-07T03:25:45;6.50;;;3.93;;
11747;SDS011;5931;48.832;9.072;2023-05-07T03:28:11;4.20;;;3.43;;
11747;SDS011;5931;48.832;9.072;2023-05-07T03:30:42;4.67;;;3.90;;
11747;SDS011;5931;48.832;9.072;2023-05-07T03:33:08;5.33;;;3.97;;
11747;SDS011;5931;48.832;9.072;2023-05-07T03:35:34;7.07;;;4.43;;
11747;SDS011;5931;48.832;9.072;2023-05-07T03:38:00;5.70;;;4.10;;
11747;SDS011;5931;48.832;9.072;2023-05-07T03:40:29;4.33;;;3.53;;
11747;SDS011;5931;48.832;9.072;2023-05-07T03:42:55;5.60;;;4.30;;
11747;SDS011;5931;48.832;9.072;2023-05-07T03:45:24;5.47;;;4.03;;
11747;SDS011;5931;48.832;9.072;2023-05-07T03:47:58;5.33;;;4.00;;
11747;SDS011;5931;48.832;9.072;2023-05-07T03:50:23;5.03;;;3.60;;
11747;SDS011;5931;48.832;9.072;2023-05-07T03:52:49;5.37;;;3.70;;
11747;SDS011;5931;48.832;9.072;2023-05-07T03:55:18;5.60;;;3.73;;
11747;SDS011;5931;48.832;9.072;2023-05-07T03:57:49;5.90;;;3.80;;
11747;SDS011;5931;48.832;9.072;2023-05-07T04:00:15;5.87;;;4.07;;
11747;SDS011;5931;48.832;9.072;2023-05-07T04:02:47;4.53;;;3.70;;
11747;SDS011;5931;48.832;9.072;2023-05-07T04:05:14;5.67;;;3.80;;
11747;SDS011;5931;48.832;9.072;2023-05-07T04:07:42;5.23;;;4.27;;
11747;SDS011;5931;48.832;9.072;2023-05-07T04:10:09;5.00;;;3.33;;
11747;SDS011;5931;48.832;9.072;2023-05-07T04:12:37;5.77;;;4.47;;
11747;SDS011;5931;48.832;9.072;2023-05-07T04:15:04;3.87;;;3.47;;
11747;SDS011;5931;48.832;9.072;2023-05-07T04:17:30;4.50;;;3.53;;
11747;SDS011;5931;48.832;9.072;2023-05-07T04:19:56;4.93;;;3.70;;
11747;SDS011;5931;48.832;9.072;2023-05-07T04:22:22;6.40;;;3.90;;
11747;SDS011;5931;48.832;9.072;2023-05-07T04:24:47;5.10;;;4.00;;
11747;SDS011;5931;48.832;9.072;2023-05-07T04:27:13;5.30;;;3.77;;
11747;SDS011;5931;48.832;9.072;2023-05-07T04:29:39;5.33;;;3.50;;
11747;SDS011;5931;48.832;9.072;2023-05-07T04:32:09;5.97;;;3.73;;
11747;SDS011;5931;48.832;9.072;2023-05-07T04:34:36;3.57;;;3.23;;
11747;SDS011;5931;48.832;9.072;2023-05-07T04:37:02;4.67;;;3.40;;
11747;SDS011;5931;48.832;9.072;2023-05-07T04:39:29;8.03;;;4.30;;
11747;SDS011;5931;48.832;9.072;2023-05-07T04:41:54;5.10;;;3.27;;
11747;SDS011;5931;48.832;9.072;2023-05-07T04:44:21;5.00;;;3.80;;
11747;SDS011;5931;48.832;9.072;2023-05-07T04:46:47;5.80;;;3.93;;
11747;SDS011;5931;48.832;9.072;2023-05-07T04:49:13;4.00;;;3.40;;
11747;SDS011;5931;48.832;9.072;2023-05-07T04:51:38;5.13;;;4.10;;
11747;SDS011;5931;48.832;9.072;2023-05-07T04:54:09;5.40;;;3.30;;
11747;SDS011;5931;48.832;9.072;2023-05-07T04:56:35;5.10;;;3.47;;
11747;SDS011;5931;48.832;9.072;2023-05-07T04:59:01;4.13;;;3.10;;
11747;SDS011;5931;48.832;9.072;2023-05-07T05:01:28;4.03;;;3.63;;
11747;SDS011;5931;48.832;9.072;2023-05-07T05:03:53;5.37;;;3.20;;
11747;SDS011;5931;48.832;9.072;2023-05-07T05:06:19;4.37;;;3.73;;
11747;SDS011;5931;48.832;9.072;2023-05-07T05:08:45;4.10;;;3.10;;
11747;SDS011;5931;48.832;9.072;2023-05-07T05:11:11;3.77;;;3.37;;
11747;SDS011;5931;48.832;9.072;2023-05-07T05:13:37;4.77;;;3.30;;
11747;SDS011;5931;48.832;9.072;2023-05-07T05:16:09;4.00;;;3.20;;
11747;SDS011;5931;48.832;9.072;2023-05-07T05:18:36;5.30;;;3.73;;
11747;SDS011;5931;48.832;9.072;2023-05-07T05:21:02;4.60;;;3.33;;
11747;SDS011;5931;48.832;9.072;2023-05-07T05:23:28;4.57;;;3.37;;
11747;SDS011;5931;48.832;9.072;2023-05-07T05:25:55;6.50;;;4.30;;
11747;SDS011;5931;48.832;9.072;2023-05-07T05:28:24;3.83;;;3.40;;
11747;SDS011;5931;48.832;9.072;2023-05-07T05:30:50;6.67;;;3.20;;
11747;SDS011;5931;48.832;9.072;2023-05-07T05:33:16;5.43;;;3.50;;
11747;SDS011;5931;48.832;9.072;2023-05-07T05:35:42;5.60;;;3.70;;
11747;SDS011;5931;48.832;9.072;2023-05-07T05:38:10;4.83;;;3.73;;
11747;SDS011;5931;48.832;9.072;2023-05-07T05:40:37;4.00;;;3.10;;
11747;SDS011;5931;48.832;9.072;2023-05-07T05:43:03;3.90;;;3.37;;
11747;SDS011;5931;48.832;9.072;2023-05-07T05:45:30;3.67;;;3.17;;
11747;SDS011;5931;48.832;9.072;2023-05-07T05:47:56;4.47;;;3.70;;
11747;SDS011;5931;48.832;9.072;2023-05-07T05:50:22;4.90;;;3.70;;
11747;SDS011;5931;48.832;9.072;2023-05-07T05:52:48;5.50;;;4.00;;
11747;SDS011;5931;48.832;9.072;2023-05-07T05:55:15;4.83;;;3.30;;
11747;SDS011;5931;48.832;9.072;2023-05-07T05:57:41;3.90;;;3.30;;
11747;SDS011;5931;48.832;9.072;2023-05-07T06:00:08;4.10;;;3.33;;
11747;SDS011;5931;48.832;9.072;2023-05-07T06:02:43;3.27;;;2.83;;
11747;SDS011;5931;48.832;9.072;2023-05-07T06:05:11;3.40;;;3.10;;
11747;SDS011;5931;48.832;9.072;2023-05-07T06:07:37;7.60;;;3.80;;
11747;SDS011;5931;48.832;9.072;2023-05-07T06:10:02;4.27;;;3.30;;
11747;SDS011;5931;48.832;9.072;2023-05-07T06:12:31;5.70;;;3.97;;
11747;SDS011;5931;48.832;9.072;2023-05-07T06:14:57;4.70;;;3.73;;
11747;SDS011;5931;48.832;9.072;2023-05-07T06:17:23;4.93;;;3.63;;
11747;SDS011;5931;48.832;9.072;2023-05-07T06:19:49;5.40;;;3.50;;
11747;SDS011;5931;48.832;9.072;2023-05-07T06:22:17;3.67;;;3.30;;
11747;SDS011;5931;48.832;9.072;2023-05-07T06:24:43;5.40;;;4.00;;
11747;SDS011;5931;48.832;9.072;2023-05-07T06:27:08;6.77;;;4.97;;
11747;SDS011;5931;48.832;9.072;2023-05-07T06:29:34;6.93;;;4.90;;
11747;SDS011;5931;48.832;9.072;2023-05-07T06:32:10;3.80;;;3.47;;
11747;SDS011;5931;48.832;9.072;2023-05-07T06:34:39;5.90;;;3.77;;
11747;SDS011;5931;48.832;9.072;2023-05-07T06:37:05;4.67;;;3.60;;
11747;SDS011;5931;48.832;9.072;2023-05-07T06:39:53;4.70;;;3.87;;
11747;SDS011;5931;48.832;9.072;2023-05-07T06:42:19;4.30;;;3.90;;
11747;SDS011;5931;48.832;9.072;2023-05-07T06:44:47;4.87;;;4.00;;
11747;SDS011;5931;48.832;9.072;2023-05-07T06:47:15;4.90;;;4.40;;
11747;SDS011;5931;48.832;9.072;2023-05-07T06:49:41;6.27;;;4.60;;
11747;SDS011;5931;48.832;9.072;2023-05-07T06:52:07;5.67;;;3.87;;
11747;SDS011;5931;48.832;9.072;2023-05-07T06:54:32;5.20;;;3.97;;
11747;SDS011;5931;48.832;9.072;2023-05-07T06:56:58;4.90;;;3.83;;
11747;SDS011;5931;48.832;9.072;2023-05-07T06:59:26;5.07;;;3.87;;
11747;SDS011;5931;48.832;9.072;2023-05-07T07:01:52;5.23;;;4.37;;
11747;SDS011;5931;48.832;9.072;2023-05-07T07:04:18;6.27;;;4.53;;
11747;SDS011;5931;48.832;9.072;2023-05-07T07:06:49;6.77;;;4.20;;
11747;SDS011;5931;48.832;9.072;2023-05-07T07:09:16;5.77;;;4.10;;
11747;SDS011;5931;48.832;9.072;2023-05-07T07:11:42;4.10;;;3.70;;
11747;SDS011;5931;48.832;9.072;2023-05-07T07:14:08;6.17;;;4.57;;
11747;SDS011;5931;48.832;9.072;2023-05-07T07:16:39;4.70;;;4.13;;
11747;SDS011;5931;48.832;9.072;2023-05-07T07:19:05;5.83;;;4.07;;
11747;SDS011;5931;48.832;9.072;2023-05-07T07:21:31;5.03;;;4.40;;
11747;SDS011;5931;48.832;9.072;2023-05-07T07:23:57;4.40;;;4.00;;
11747;SDS011;5931;48.832;9.072;2023-05-07T07:26:24;6.17;;;4.17;;
11747;SDS011;5931;48.832;9.072;2023-05-07T07:28:49;4.70;;;3.70;;
11747;SDS011;5931;48.832;9.072;2023-05-07T07:31:18;4.40;;;3.33;;
11747;SDS011;5931;48.832;9.072;2023-05-07T07:33:45;4.50;;;3.97;;
11747;SDS011;5931;48.832;9.072;2023-05-07T07:36:10;5.00;;;3.10;;
11747;SDS011;5931;48.832;9.072;2023-05-07T07:38:37;3.50;;;3.10;;
11747;SDS011;5931;48.832;9.072;2023-05-07T07:41:03;4.80;;;3.20;;
11747;SDS011;5931;48.832;9.072;2023-05-07T07:43:29;4.50;;;2.80;;
11747;SDS011;5931;48.832;9.072;2023-05-07T07:45:55;3.80;;;3.50;;
11747;SDS011;5931;48.832;9.072;2023-05-07T07:48:21;4.40;;;3.00;;
11747;SDS011;5931;48.832;9.072;2023-05-07T07:50:50;3.17;;;2.60;;
11747;SDS011;5931;48.832;9.072;2023-05-07T07:53:19;3.70;;;2.93;;
11747;SDS011;5931;48.832;9.072;2023-05-07T07:55:45;5.50;;;3.33;;
11747;SDS011;5931;48.832;9.072;2023-05-07T07:58:14;3.27;;;2.97;;
11747;SDS011;5931;48.832;9.072;2023-05-07T08:00:40;4.40;;;2.70;;
11747;SDS011;5931;48.832;9.072;2023-05-07T08:03:08;2.63;;;2.43;;
11747;SDS011;5931;48.832;9.072;2023-05-07T08:05:38;5.07;;;2.93;;
11747;SDS011;5931;48.832;9.072;2023-05-07T08:08:05;3.13;;;2.77;;
11747;SDS011;5931;48.832;9.072;2023-05-07T08:10:32;3.07;;;2.80;;
11747;SDS011;5931;48.832;9.072;2023-05-07T08:13:04;3.50;;;2.80;;
11747;SDS011;5931;48.832;9.072;2023-05-07T08:15:30;2.50;;;2.30;;
11747;SDS011;5931;48.832;9.072;2023-05-07T08:17:57;3.10;;;2.60;;
11747;SDS011;5931;48.832;9.072;2023-05-07T08:20:25;3.10;;;2.50;;
11747;SDS011;5931;48.832;9.072;2023-05-07T08:22:51;4.30;;;2.77;;
11747;SDS011;5931;48.832;9.072;2023-05-07T08:25:18;3.50;;;2.70;;
11747;SDS011;5931;48.832;9.072;2023-05-07T08:27:44;2.20;;;2.00;;
11747;SDS011;5931;48.832;9.072;2023-05-07T08:30:11;2.70;;;2.50;;
11747;SDS011;5931;48.832;9.072;2023-05-07T08:32:37;3.60;;;2.80;;
11747;SDS011;5931;48.832;9.072;2023-05-07T08:35:03;2.93;;;2.10;;
11747;SDS011;5931;48.832;9.072;2023-05-07T08:37:29;3.23;;;2.93;;
11747;SDS011;5931;48.832;9.072;2023-05-07T08:39:54;3.23;;;2.63;;
11747;SDS011;5931;48.832;9.072;2023-05-07T08:42:24;2.60;;;2.40;;
11747;SDS011;5931;48.832;9.072;2023-05-07T08:44:52;2.87;;;2.63;;
11747;SDS011;5931;48.832;9.072;2023-05-07T08:47:22;2.87;;;2.67;;
11747;SDS011;5931;48.832;9.072;2023-05-07T08:49:53;4.83;;;3.03;;
11747;SDS011;5931;48.832;9.072;2023-05-07T08:52:20;3.50;;;2.47;;
11747;SDS011;5931;48.832;9.072;2023-05-07T08:54:46;3.10;;;2.80;;
11747;SDS011;5931;48.832;9.072;2023-05-07T08:57:12;3.40;;;2.83;;
11747;SDS011;5931;48.832;9.072;2023-05-07T08:59:38;3.57;;;3.27;;
11747;SDS011;5931;48.832;9.072;2023-05-07T09:02:05;3.63;;;2.97;;
11747;SDS011;5931;48.832;9.072;2023-05-07T09:04:34;2.87;;;2.60;;
11747;SDS011;5931;48.832;9.072;2023-05-07T09:07:00;3.10;;;2.77;;
11747;SDS011;5931;48.832;9.072;2023-05-07T09:09:34;3.10;;;2.80;;
11747;SDS011;5931;48.832;9.072;2023-05-07T09:12:01;3.53;;;2.53;;
11747;SDS011;5931;48.832;9.072;2023-05-07T09:14:31;4.23;;;2.30;;
11747;SDS011;5931;48.832;9.072;2023-05-07T09:16:58;3.40;;;3.10;;
11747;SDS011;5931;48.832;9.072;2023-05-07T09:19:24;2.67;;;2.43;;
11747;SDS011;5931;48.832;9.072;2023-05-07T09:22:01;4.83;;;2.37;;
11747;SDS011;5931;48.832;9.072;2023-05-07T09:24:36;2.63;;;2.40;;
11747;SDS011;5931;48.832;9.072;2023-05-07T09:27:05;3.10;;;2.80;;
11747;SDS011;5931;48.832;9.072;2023-05-07T09:29:32;3.20;;;2.60;;
11747;SDS011;5931;48.832;9.072;2023-05-07T09:32:03;4.07;;;2.50;;
11747;SDS011;5931;48.832;9.072;2023-05-07T09:34:30;2.33;;;2.13;;
11747;SDS011;5931;48.832;9.072;2023-05-07T09:37:02;3.00;;;2.37;;
11747;SDS011;5931;48.832;9.072;2023-05-07T09:39:43;3.40;;;2.70;;
11747;SDS011;5931;48.832;9.072;2023-05-07T09:42:11;2.27;;;2.07;;
11747;SDS011;5931;48.832;9.072;2023-05-07T09:44:38;2.83;;;2.63;;
11747;SDS011;5931;48.832;9.072;2023-05-07T09:47:09;2.50;;;2.30;;
11747;SDS011;5931;48.832;9.072;2023-05-07T09:49:42;4.50;;;2.43;;
11747;SDS011;5931;48.832;9.072;2023-05-07T09:52:13;2.40;;;2.20;;
11747;SDS011;5931;48.832;9.072;2023-05-07T09:54:45;2.30;;;2.10;;
11747;SDS011;5931;48.832;9.072;2023-05-07T09:57:16;2.30;;;2.10;;
11747;SDS011;5931;48.832;9.072;2023-05-07T09:59:46;2.57;;;2.17;;
11747;SDS011;5931;48.832;9.072;2023-05-07T10:02:16;2.20;;;2.00;;
11747;SDS011;5931;48.832;9.072;2023-05-07T10:04:47;2.30;;;2.10;;
11747;SDS011;5931;48.832;9.072;2023-05-07T10:07:17;3.40;;;2.73;;
11747;SDS011;5931;48.832;9.072;2023-05-07T10:09:44;2.30;;;2.10;;
11747;SDS011;5931;48.832;9.072;2023-05-07T10:12:20;2.53;;;2.00;;
11747;SDS011;5931;48.832;9.072;2023-05-07T10:14:47;2.17;;;2.07;;
11747;SDS011;5931;48.832;9.072;2023-05-07T10:17:15;2.60;;;2.40;;
11747;SDS011;5931;48.832;9.072;2023-05-07T10:19:42;3.03;;;2.10;;
11747;SDS011;5931;48.832;9.072;2023-05-07T10:22:10;2.70;;;2.50;;
11747;SDS011;5931;48.832;9.072;2023-05-07T10:24:42;2.53;;;2.10;;
11747;SDS011;5931;48.832;9.072;2023-05-07T10:27:14;4.80;;;2.40;;
11747;SDS011;5931;48.832;9.072;2023-05-07T10:32:49;2.33;;;2.13;;
11747;SDS011;5931;48.832;9.072;2023-05-07T10:35:26;2.17;;;1.97;;
11747;SDS011;5931;48.832;9.072;2023-05-07T10:37:57;2.70;;;2.00;;
11747;SDS011;5931;48.832;9.072;2023-05-07T10:40:26;2.50;;;2.30;;
11747;SDS011;5931;48.832;9.072;2023-05-07T10:43:11;2.17;;;2.00;;
11747;SDS011;5931;48.832;9.072;2023-05-07T10:45:42;2.20;;;2.00;;
11747;SDS011;5931;48.832;9.072;2023-05-07T10:48:15;2.20;;;2.00;;
11747;SDS011;5931;48.832;9.072;2023-05-07T10:50:48;2.53;;;2.10;;
11747;SDS011;5931;48.832;9.072;2023-05-07T11:04:45;7.63;;;3.23;;
11747;SDS011;5931;48.832;9.072;2023-05-07T11:07:33;5.47;;;3.73;;
11747;SDS011;5931;48.832;9.072;2023-05-07T11:10:04;4.13;;;3.73;;
11747;SDS011;5931;48.832;9.072;2023-05-07T11:15:13;5.60;;;3.10;;
11747;SDS011;5931;48.832;9.072;2023-05-07T11:26:48;6.13;;;4.17;;
11747;SDS011;5931;48.832;9.072;2023-05-07T11:29:16;4.33;;;3.63;;
11747;SDS011;5931;48.832;9.072;2023-05-07T11:31:44;5.30;;;4.13;;
11747;SDS011;5931;48.832;9.072;2023-05-07T11:34:14;10.03;;;5.33;;
11747;SDS011;5931;48.832;9.072;2023-05-07T11:36:45;8.47;;;5.10;;
11747;SDS011;5931;48.832;9.072;2023-05-07T11:39:23;6.83;;;4.80;;
11747;SDS011;5931;48.832;9.072;2023-05-07T11:41:57;4.70;;;4.30;;
11747;SDS011;5931;48.832;9.072;2023-05-07T11:44:42;5.43;;;4.77;;
11747;SDS011;5931;48.832;9.072;2023-05-07T11:47:09;6.37;;;4.03;;
11747;SDS011;5931;48.832;9.072;2023-05-07T11:49:35;5.50;;;4.23;;
11747;SDS011;5931;48.832;9.072;2023-05-07T11:52:01;5.07;;;4.23;;
11747;SDS011;5931;48.832;9.072;2023-05-07T11:54:34;4.03;;;3.63;;
11747;SDS011;5931;48.832;9.072;2023-05-07T11:57:00;4.53;;;3.83;;
11747;SDS011;5931;48.832;9.072;2023-05-07T11:59:26;4.93;;;4.43;;
11747;SDS011;5931;48.832;9.072;2023-05-07T12:01:52;4.53;;;4.10;;
11747;SDS011;5931;48.832;9.072;2023-05-07T12:04:21;5.47;;;4.23;;
11747;SDS011;5931;48.832;9.072;2023-05-07T12:06:47;5.60;;;4.70;;
11747;SDS011;5931;48.832;9.072;2023-05-07T12:09:12;5.07;;;4.57;;
11747;SDS011;5931;48.832;9.072;2023-05-07T12:11:38;5.10;;;4.60;;
11747;SDS011;5931;48.832;9.072;2023-05-07T12:14:05;5.97;;;4.17;;
11747;SDS011;5931;48.832;9.072;2023-05-07T12:16:30;4.40;;;3.83;;
11747;SDS011;5931;48.832;9.072;2023-05-07T12:18:57;3.10;;;2.70;;
11747;SDS011;5931;48.832;9.072;2023-05-07T12:21:24;7.37;;;2.20;;
11747;SDS011;5931;48.832;9.072;2023-05-07T12:23:50;2.30;;;2.10;;
11747;SDS011;5931;48.832;9.072;2023-05-07T12:26:16;2.40;;;2.20;;
11747;SDS011;5931;48.832;9.072;2023-05-07T12:28:42;2.73;;;2.00;;
11747;SDS011;5931;48.832;9.072;2023-05-07T12:31:07;1.80;;;1.70;;
11747;SDS011;5931;48.832;9.072;2023-05-07T12:33:33;1.70;;;1.60;;
11747;SDS011;5931;48.832;9.072;2023-05-07T12:36:02;2.10;;;1.90;;
11747;SDS011;5931;48.832;9.072;2023-05-07T12:38:32;2.53;;;1.77;;
11747;SDS011;5931;48.832;9.072;2023-05-07T12:41:01;2.00;;;1.90;;
11747;SDS011;5931;48.832;9.072;2023-05-07T12:43:27;3.17;;;2.43;;
11747;SDS011;5931;48.832;9.072;2023-05-07T12:45:54;3.47;;;1.80;;
11747;SDS011;5931;48.832;9.072;2023-05-07T12:48:22;2.43;;;2.10;;
11747;SDS011;5931;48.832;9.072;2023-05-07T12:50:51;2.70;;;2.20;;
11747;SDS011;5931;48.832;9.072;2023-05-07T12:53:20;3.17;;;2.43;;
11747;SDS011;5931;48.832;9.072;2023-05-07T12:55:47;2.23;;;2.03;;
11747;SDS011;5931;48.832;9.072;2023-05-07T12:58:18;5.87;;;2.37;;
11747;SDS011;5931;48.832;9.072;2023-05-07T13:00:54;4.67;;;2.40;;
11747;SDS011;5931;48.832;9.072;2023-05-07T13:03:30;2.47;;;2.27;;
11747;SDS011;5931;48.832;9.072;2023-05-07T13:05:57;2.53;;;2.17;;
11747;SDS011;5931;48.832;9.072;2023-05-07T13:08:29;2.20;;;2.00;;
11747;SDS011;5931;48.832;9.072;2023-05-07T13:10:56;3.10;;;2.80;;
11747;SDS011;5931;48.832;9.072;2023-05-07T13:13:30;3.80;;;3.50;;
11747;SDS011;5931;48.832;9.072;2023-05-07T13:15:56;2.43;;;2.10;;
11747;SDS011;5931;48.832;9.072;2023-05-07T13:18:22;2.80;;;2.40;;
11747;SDS011;5931;48.832;9.072;2023-05-07T13:20:49;2.50;;;2.20;;
11747;SDS011;5931;48.832;9.072;2023-05-07T13:23:15;3.10;;;2.50;;
11747;SDS011;5931;48.832;9.072;2023-05-07T13:25:40;2.37;;;2.17;;
11747;SDS011;5931;48.832;9.072;2023-05-07T13:28:06;2.40;;;2.00;;
11747;SDS011;5931;48.832;9.072;2023-05-07T13:30:31;3.40;;;2.03;;
11747;SDS011;5931;48.832;9.072;2023-05-07T13:32:57;4.00;;;2.20;;
11747;SDS011;5931;48.832;9.072;2023-05-07T13:35:23;3.10;;;1.77;;
11747;SDS011;5931;48.832;9.072;2023-05-07T13:37:48;2.77;;;2.10;;
11747;SDS011;5931;48.832;9.072;2023-05-07T13:40:14;2.07;;;1.80;;
11747;SDS011;5931;48.832;9.072;2023-05-07T13:42:40;1.87;;;1.63;;
11747;SDS011;5931;48.832;9.072;2023-05-07T13:45:06;3.00;;;1.70;;
11747;SDS011;5931;48.832;9.072;2023-05-07T13:47:33;1.83;;;1.63;;
11747;SDS011;5931;48.832;9.072;2023-05-07T13:49:59;2.53;;;1.50;;
11747;SDS011;5931;48.832;9.072;2023-05-07T13:52:25;3.90;;;1.80;;
11747;SDS011;5931;48.832;9.072;2023-05-07T13:54:50;2.13;;;1.77;;
11747;SDS011;5931;48.832;9.072;2023-05-07T13:57:17;1.93;;;1.70;;
11747;SDS011;5931;48.832;9.072;2023-05-07T13:59:43;1.87;;;1.53;;
11747;SDS011;5931;48.832;9.072;2023-05-07T14:02:09;2.60;;;1.80;;
11747;SDS011;5931;48.832;9.072;2023-05-07T14:04:34;1.83;;;1.63;;
11747;SDS011;5931;48.832;9.072;2023-05-07T14:07:00;1.60;;;1.50;;
11747;SDS011;5931;48.832;9.072;2023-05-07T14:09:26;2.70;;;1.70;;
11747;SDS011;5931;48.832;9.072;2023-05-07T14:11:51;2.83;;;1.67;;
11747;SDS011;5931;48.832;9.072;2023-05-07T14:14:17;2.57;;;2.20;;
11747;SDS011;5931;48.832;9.072;2023-05-07T14:16:44;2.43;;;1.87;;
11747;SDS011;5931;48.832;9.072;2023-05-07T14:19:10;2.50;;;2.30;;
11747;SDS011;5931;48.832;9.072;2023-05-07T14:21:36;2.83;;;2.20;;
11747;SDS011;5931;48.832;9.072;2023-05-07T14:24:02;2.20;;;2.00;;
11747;SDS011;5931;48.832;9.072;2023-05-07T14:26:28;2.23;;;1.90;;
11747;SDS011;5931;48.832;9.072;2023-05-07T14:28:54;3.13;;;2.40;;
11747;SDS011;5931;48.832;9.072;2023-05-07T14:31:22;3.40;;;2.27;;
11747;SDS011;5931;48.832;9.072;2023-05-07T14:33:48;2.93;;;2.53;;
11747;SDS011;5931;48.832;9.072;2023-05-07T14:36:15;2.50;;;2.20;;
11747;SDS011;5931;48.832;9.072;2023-05-07T14:38:42;3.13;;;2.67;;
11747;SDS011;5931;48.832;9.072;2023-05-07T14:41:08;3.03;;;2.23;;
11747;SDS011;5931;48.832;9.072;2023-05-07T14:43:33;4.30;;;2.40;;
11747;SDS011;5931;48.832;9.072;2023-05-07T14:45:59;5.40;;;3.07;;
11747;SDS011;5931;48.832;9.072;2023-05-07T14:48:24;7.07;;;3.10;;
11747;SDS011;5931;48.832;9.072;2023-05-07T14:50:50;2.40;;;2.20;;
11747;SDS011;5931;48.832;9.072;2023-05-07T14:53:16;2.53;;;2.33;;
11747;SDS011;5931;48.832;9.072;2023-05-07T14:55:41;3.17;;;2.60;;
11747;SDS011;5931;48.832;9.072;2023-05-07T14:58:07;3.70;;;2.47;;
11747;SDS011;5931;48.832;9.072;2023-05-07T15:00:33;3.10;;;2.37;;
11747;SDS011;5931;48.832;9.072;2023-05-07T15:03:03;3.00;;;2.77;;
11747;SDS011;5931;48.832;9.072;2023-05-07T15:05:33;2.50;;;2.30;;
11747;SDS011;5931;48.832;9.072;2023-05-07T15:08:00;4.13;;;2.33;;
11747;SDS011;5931;48.832;9.072;2023-05-07T15:10:25;2.60;;;2.20;;
11747;SDS011;5931;48.832;9.072;2023-05-07T15:12:51;3.00;;;2.60;;
11747;SDS011;5931;48.832;9.072;2023-05-07T15:15:17;2.67;;;2.33;;
11747;SDS011;5931;48.832;9.072;2023-05-07T15:17:43;4.03;;;2.50;;
11747;SDS011;5931;48.832;9.072;2023-05-07T15:20:08;2.90;;;2.13;;
11747;SDS011;5931;48.832;9.072;2023-05-07T15:22:35;4.00;;;2.97;;
11747;SDS011;5931;48.832;9.072;2023-05-07T15:25:02;3.57;;;2.60;;
11747;SDS011;5931;48.832;9.072;2023-05-07T15:27:29;5.10;;;2.97;;
11747;SDS011;5931;48.832;9.072;2023-05-07T15:29:55;2.63;;;2.43;;